Time;durP1;ratioP1;P1;durP2;ratioP2;P2;SDS_P1;SDS_P2;PMS_P1;PMS_P2;Temp;Humidity;BMP_temperature;BMP_pressure;BME280_temperature;BME280_humidity;BME280_pressure;Samples;Min_cycle;Max_cycle;Signal;HPM_P1;HPM_P2
2022/01/14 00:00:54;;;;;;;3.38;2.58;;;5.20;99.90;;;;;;5033427;28;20298;-80
2022/01/14 00:03:23;;;;;;;1.67;1.58;;;5.20;99.90;;;;;;5033388;28;20294;-80
2022/01/14 00:05:53;;;;;;;2.65;2.38;;;5.20;99.90;;;;;;5032662;28;20230;-80
2022/01/14 00:08:21;;;;;;;3.58;2.50;;;5.20;99.90;;;;;;5033574;28;20226;-80
2022/01/14 00:10:50;;;;;;;3.42;2.80;;;5.30;99.90;;;;;;5041911;28;20206;-81
2022/01/14 00:13:42;;;;;;;3.88;1.95;;;5.20;99.90;;;;;;5049557;28;20221;-80
2022/01/14 00:16:10;;;;;;;2.50;2.30;;;5.20;99.90;;;;;;5031789;28;20281;-80
2022/01/14 00:18:39;;;;;;;3.00;2.40;;;5.30;99.90;;;;;;5053195;28;20257;-79
2022/01/14 00:21:09;;;;;;;2.15;1.95;;;5.40;99.90;;;;;;5043875;28;20277;-80
2022/01/14 00:23:40;;;;;;;2.45;2.25;;;5.40;99.90;;;;;;5045280;28;20198;-80
2022/01/14 00:31:43;;;;;;;3.20;2.78;;;5.30;99.90;;;;;;5051918;28;20209;-80
2022/01/14 00:34:12;;;;;;;2.92;2.70;;;5.30;99.90;;;;;;5013562;28;20257;-80
2022/01/14 00:36:42;;;;;;;3.72;2.30;;;5.30;99.90;;;;;;5031008;28;20221;-80
2022/01/14 00:39:12;;;;;;;3.00;2.70;;;5.30;99.90;;;;;;5020766;28;20261;-80
2022/01/14 00:41:41;;;;;;;3.15;2.80;;;5.30;99.90;;;;;;5052855;28;20194;-80
2022/01/14 00:44:12;;;;;;;2.30;2.10;;;5.30;99.90;;;;;;5050642;28;20304;-80
2022/01/14 00:46:42;;;;;;;4.18;2.58;;;5.30;99.90;;;;;;5048318;28;20222;-80
2022/01/14 00:49:12;;;;;;;3.80;2.30;;;5.30;99.90;;;;;;5043786;28;20225;-80
2022/01/14 00:51:42;;;;;;;3.83;2.75;;;5.30;99.90;;;;;;5032969;28;20206;-80
2022/01/14 00:54:13;;;;;;;3.38;3.08;;;5.30;99.90;;;;;;5032982;28;20232;-82
2022/01/14 00:59:26;;;;;;;3.65;3.10;;;5.20;99.90;;;;;;5037349;28;20265;-80
2022/01/14 01:01:56;;;;;;;3.53;2.95;;;5.20;99.90;;;;;;5032940;28;20232;-80
2022/01/14 01:04:29;;;;;;;2.50;2.30;;;5.20;99.90;;;;;;5032949;28;20361;-80
2022/01/14 01:07:00;;;;;;;2.08;1.88;;;5.30;99.90;;;;;;5032682;28;20302;-80
2022/01/14 01:09:30;;;;;;;2.67;2.47;;;5.30;99.90;;;;;;5032795;28;20206;-80
2022/01/14 01:12:11;;;;;;;2.55;2.35;;;5.20;99.90;;;;;;5038353;28;20214;-80
2022/01/14 01:14:46;;;;;;;2.45;2.15;;;5.30;99.90;;;;;;5035054;28;20224;-80
2022/01/14 01:17:15;;;;;;;3.30;2.78;;;5.30;99.90;;;;;;5040745;28;20203;-80
2022/01/14 01:19:44;;;;;;;2.40;2.20;;;5.30;99.90;;;;;;5040014;28;20310;-80
2022/01/14 01:22:13;;;;;;;4.07;2.70;;;5.30;99.90;;;;;;5035557;28;20194;-81
2022/01/14 01:24:42;;;;;;;4.43;2.72;;;5.20;99.90;;;;;;5036780;28;20226;-80
2022/01/14 01:27:10;;;;;;;2.72;2.53;;;5.20;99.90;;;;;;5052754;28;20222;-80
2022/01/14 01:29:50;;;;;;;2.72;2.30;;;5.20;99.90;;;;;;5053720;28;20289;-80
2022/01/14 01:32:19;;;;;;;1.92;1.83;;;5.30;99.90;;;;;;5056363;28;20202;-80
2022/01/14 01:34:47;;;;;;;2.05;1.83;;;5.30;99.90;;;;;;5055875;28;20277;-80
2022/01/14 01:37:18;;;;;;;4.75;2.92;;;5.30;99.90;;;;;;5056205;28;20276;-81
2022/01/14 01:39:47;;;;;;;2.33;2.13;;;5.30;99.90;;;;;;5055960;28;20227;-80
2022/01/14 01:42:19;;;;;;;2.42;2.22;;;5.40;99.90;;;;;;5039173;28;20207;-80
2022/01/14 01:44:49;;;;;;;1.60;1.50;;;5.40;99.90;;;;;;5043598;28;20237;-80
2022/01/14 01:47:19;;;;;;;2.38;2.17;;;5.40;99.90;;;;;;5040164;28;20305;-80
2022/01/14 01:49:47;;;;;;;5.40;3.10;;;5.50;99.90;;;;;;5043019;28;20221;-80
2022/01/14 01:52:17;;;;;;;6.28;2.85;;;5.50;99.90;;;;;;5051915;28;20228;-80
2022/01/14 01:54:45;;;;;;;2.15;1.95;;;5.50;99.90;;;;;;5035574;28;20306;-79
2022/01/14 01:57:13;;;;;;;2.17;2.05;;;5.50;99.90;;;;;;5051513;28;20220;-79
2022/01/14 01:59:42;;;;;;;2.92;2.58;;;5.50;99.90;;;;;;5047493;28;20279;-80
2022/01/14 02:02:11;;;;;;;2.08;1.80;;;5.40;99.90;;;;;;5040640;28;20261;-79
2022/01/14 02:04:40;;;;;;;4.15;2.10;;;5.30;99.90;;;;;;5037256;28;20224;-80
2022/01/14 02:07:08;;;;;;;2.72;2.45;;;5.40;99.90;;;;;;5041377;28;20222;-79
2022/01/14 02:09:38;;;;;;;2.42;2.22;;;5.30;99.90;;;;;;5035450;28;20263;-80
2022/01/14 02:12:10;;;;;;;3.40;2.80;;;5.40;99.90;;;;;;5051835;28;20286;-80
2022/01/14 02:14:56;;;;;;;2.60;2.08;;;5.40;99.90;;;;;;5044251;28;20305;-80
2022/01/14 02:17:34;;;;;;;1.90;1.80;;;5.40;99.90;;;;;;5053507;28;20197;-80
2022/01/14 02:22:56;;;;;;;2.28;2.03;;;5.40;99.90;;;;;;5046869;28;20202;-80
2022/01/14 02:25:29;;;;;;;1.67;1.58;;;5.40;99.90;;;;;;5048074;28;20249;-80
2022/01/14 02:28:01;;;;;;;2.58;2.03;;;5.40;99.90;;;;;;5039145;28;20230;-80
2022/01/14 02:30:31;;;;;;;3.08;2.28;;;5.40;99.90;;;;;;5019311;28;20258;-79
2022/01/14 02:33:00;;;;;;;2.67;2.25;;;5.40;99.90;;;;;;5034641;28;20290;-79
2022/01/14 02:35:30;;;;;;;2.30;2.10;;;5.40;99.90;;;;;;5054908;28;20225;-79
2022/01/14 02:37:59;;;;;;;2.05;1.85;;;5.30;99.90;;;;;;5055135;28;20197;-79
2022/01/14 02:40:28;;;;;;;3.33;2.00;;;5.30;99.90;;;;;;5044140;28;20198;-80
2022/01/14 02:43:00;;;;;;;2.00;1.80;;;5.30;99.90;;;;;;5052989;28;20305;-79
2022/01/14 02:45:31;;;;;;;2.72;2.30;;;5.30;99.90;;;;;;5051424;28;20253;-79
2022/01/14 02:48:00;;;;;;;4.22;1.92;;;5.30;99.90;;;;;;5042277;28;20316;-80
2022/01/14 02:50:37;;;;;;;2.67;2.05;;;5.20;99.90;;;;;;5052931;28;20296;-79
2022/01/14 02:53:14;;;;;;;2.35;1.98;;;5.20;99.90;;;;;;5037825;28;20281;-79
2022/01/14 02:55:43;;;;;;;1.90;1.80;;;5.20;99.90;;;;;;5048061;28;20236;-80
2022/01/14 02:58:13;;;;;;;4.50;2.60;;;5.20;99.90;;;;;;5049419;28;20191;-80
2022/01/14 03:00:41;;;;;;;2.40;2.20;;;5.20;99.90;;;;;;5038605;28;20285;-80
2022/01/14 03:03:11;;;;;;;1.67;1.58;;;5.10;99.90;;;;;;5035019;28;20206;-80
2022/01/14 03:05:41;;;;;;;4.85;2.10;;;5.10;99.90;;;;;;5036894;28;20219;-79
2022/01/14 03:08:09;;;;;;;3.53;2.00;;;5.10;99.90;;;;;;5043752;28;20297;-80
2022/01/14 03:10:39;;;;;;;1.98;1.85;;;5.10;99.90;;;;;;5050844;28;20208;-79
2022/01/14 03:13:08;;;;;;;2.00;1.90;;;5.10;99.90;;;;;;5051869;28;20281;-80
2022/01/14 03:15:36;;;;;;;4.38;2.97;;;5.00;99.90;;;;;;5035027;28;20218;-80
2022/01/14 03:18:04;;;;;;;2.38;2.17;;;5.00;99.90;;;;;;5035949;28;20282;-80
2022/01/14 03:23:17;;;;;;;3.03;2.50;;;5.00;99.90;;;;;;5043153;28;20203;-80
2022/01/14 03:25:49;;;;;;;2.45;2.20;;;5.00;99.90;;;;;;5047170;28;20316;-79
2022/01/14 03:28:20;;;;;;;1.98;1.80;;;5.00;99.90;;;;;;5052191;28;20264;-79
2022/01/14 03:30:49;;;;;;;2.00;1.90;;;5.00;99.90;;;;;;5039403;28;20251;-79
2022/01/14 03:33:17;;;;;;;7.70;2.28;;;4.90;99.90;;;;;;5054239;28;20197;-79
2022/01/14 03:35:46;;;;;;;2.60;2.40;;;4.90;99.90;;;;;;5049383;28;20268;-80
2022/01/14 03:38:17;;;;;;;3.53;3.17;;;4.80;99.90;;;;;;5045677;28;20281;-79
2022/01/14 03:40:46;;;;;;;2.13;2.03;;;4.80;99.90;;;;;;5049515;28;20213;-80
2022/01/14 03:43:14;;;;;;;4.50;3.00;;;4.70;99.90;;;;;;5034135;28;20206;-80
2022/01/14 03:45:43;;;;;;;3.53;3.20;;;4.70;99.90;;;;;;5036601;28;20221;-80
2022/01/14 03:48:11;;;;;;;4.75;2.92;;;4.60;99.90;;;;;;5053221;28;20225;-80
2022/01/14 03:50:39;;;;;;;2.53;2.33;;;4.60;99.90;;;;;;5036609;28;20206;-79
2022/01/14 03:53:10;;;;;;;2.60;2.22;;;4.60;99.90;;;;;;5053776;28;20229;-80
2022/01/14 03:55:41;;;;;;;4.05;2.67;;;4.60;99.90;;;;;;5047757;28;20278;-80
2022/01/14 03:58:30;;;;;;;3.45;2.83;;;4.50;99.90;;;;;;5051662;28;20201;-80
2022/01/14 04:00:58;;;;;;;2.42;2.22;;;4.60;99.90;;;;;;5033214;28;20226;-79
2022/01/14 04:03:26;;;;;;;3.35;2.83;;;4.50;99.90;;;;;;5034086;28;20202;-80
2022/01/14 04:05:55;;;;;;;3.60;3.15;;;4.50;99.90;;;;;;5038624;28;20248;-80
2022/01/14 04:08:23;;;;;;;3.67;3.10;;;4.50;99.90;;;;;;5053523;28;20285;-80
2022/01/14 04:10:54;;;;;;;2.92;2.63;;;4.50;99.90;;;;;;5048806;28;20201;-79
2022/01/14 04:13:34;;;;;;;4.38;2.90;;;4.50;99.90;;;;;;5039555;28;20273;-79
2022/01/14 04:16:03;;;;;;;5.35;4.35;;;4.50;99.90;;;;;;5045598;28;20289;-80
2022/01/14 04:18:31;;;;;;;4.97;3.35;;;4.40;99.90;;;;;;5036052;28;20228;-79
2022/01/14 04:21:00;;;;;;;3.65;3.17;;;4.50;99.90;;;;;;5035548;28;20305;-79
2022/01/14 04:23:28;;;;;;;4.57;3.50;;;4.40;99.90;;;;;;5034390;28;20260;-79
2022/01/14 04:25:58;;;;;;;6.78;4.03;;;4.40;99.90;;;;;;5037451;28;20205;-79
2022/01/14 04:28:30;;;;;;;3.42;2.80;;;4.30;99.90;;;;;;5051441;28;20269;-79
2022/01/14 04:30:59;;;;;;;2.78;2.55;;;4.40;99.90;;;;;;5037827;28;20194;-79
2022/01/14 04:33:30;;;;;;;2.53;2.33;;;4.40;99.90;;;;;;5050203;28;20301;-80
2022/01/14 04:35:59;;;;;;;4.18;2.88;;;4.40;99.90;;;;;;5052006;28;20197;-80
2022/01/14 04:38:32;;;;;;;7.78;3.42;;;4.50;99.90;;;;;;5050737;28;20197;-79
2022/01/14 04:41:03;;;;;;;6.55;2.05;;;4.50;99.90;;;;;;5052171;28;20202;-79
2022/01/14 04:43:31;;;;;;;3.83;2.67;;;4.60;99.90;;;;;;5053001;28;20229;-79
2022/01/14 04:48:51;;;;;;;3.78;2.70;;;4.60;99.90;;;;;;5036596;28;20277;-79
2022/01/14 04:51:21;;;;;;;6.18;3.13;;;4.60;99.90;;;;;;5053221;28;20202;-80
2022/01/14 04:53:49;;;;;;;2.05;1.90;;;4.50;99.90;;;;;;5049972;28;20292;-80
2022/01/14 04:56:19;;;;;;;4.60;2.20;;;4.60;99.90;;;;;;5052320;28;20217;-79
2022/01/14 04:58:48;;;;;;;2.45;2.25;;;4.70;99.90;;;;;;5049087;28;20205;-79
2022/01/14 05:01:16;;;;;;;1.88;1.63;;;4.70;99.90;;;;;;5037488;28;20225;-79
2022/01/14 05:03:44;;;;;;;2.97;2.58;;;4.80;99.90;;;;;;5042783;28;20202;-79
2022/01/14 05:06:13;;;;;;;4.55;3.05;;;4.80;99.90;;;;;;5049381;28;20206;-79
2022/01/14 05:08:42;;;;;;;2.53;2.17;;;4.80;99.90;;;;;;5037698;28;20228;-79
2022/01/14 05:11:24;;;;;;;2.28;2.08;;;4.90;99.90;;;;;;5038227;28;20206;-80
2022/01/14 05:13:53;;;;;;;2.55;2.03;;;4.90;99.90;;;;;;5037390;28;20245;-79
2022/01/14 05:16:22;;;;;;;2.58;2.35;;;5.00;99.90;;;;;;5045237;28;20240;-79
2022/01/14 05:18:50;;;;;;;3.70;2.45;;;5.00;99.90;;;;;;5048617;28;20190;-79
2022/01/14 05:21:27;;;;;;;2.55;2.03;;;5.00;99.90;;;;;;5047087;28;20293;-79
2022/01/14 05:24:00;;;;;;;5.22;2.35;;;5.00;99.90;;;;;;5056228;28;20328;-79
2022/01/14 05:26:29;;;;;;;2.78;2.42;;;5.00;99.90;;;;;;5039559;28;20239;-79
2022/01/14 05:28:58;;;;;;;2.00;1.80;;;5.00;99.90;;;;;;5056273;28;20314;-79
2022/01/14 05:31:44;;;;;;;2.65;2.45;;;5.00;99.90;;;;;;5054482;28;20233;-80
2022/01/14 05:34:13;;;;;;;3.33;2.78;;;4.90;99.90;;;;;;5055035;28;20226;-79
2022/01/14 05:36:42;;;;;;;5.05;2.13;;;5.00;99.90;;;;;;5056133;28;20228;-79
2022/01/14 05:39:12;;;;;;;3.00;2.45;;;5.00;99.90;;;;;;5050105;28;20286;-79
2022/01/14 05:41:40;;;;;;;2.22;2.03;;;5.00;99.90;;;;;;5036375;28;20202;-79
2022/01/14 05:44:10;;;;;;;2.35;2.15;;;5.00;99.90;;;;;;5018693;28;20258;-79
2022/01/14 05:46:38;;;;;;;2.58;2.38;;;4.90;99.90;;;;;;5051217;28;20213;-79
2022/01/14 05:49:07;;;;;;;3.38;2.15;;;4.90;99.90;;;;;;5040755;28;20390;-79
2022/01/14 05:51:35;;;;;;;2.85;2.55;;;5.00;99.90;;;;;;5047370;28;20208;-79
2022/01/14 05:54:04;;;;;;;3.20;2.78;;;4.90;99.90;;;;;;5054069;28;20297;-79
2022/01/14 05:56:32;;;;;;;2.00;1.90;;;5.00;99.90;;;;;;5045863;28;20226;-79
2022/01/14 05:59:01;;;;;;;1.55;1.45;;;5.00;99.90;;;;;;5036151;28;20214;-79
2022/01/14 06:01:31;;;;;;;2.20;2.00;;;5.00;99.90;;;;;;5042082;28;20285;-79
2022/01/14 06:04:00;;;;;;;2.28;2.08;;;5.00;99.90;;;;;;5055400;28;20261;-79
2022/01/14 06:06:30;;;;;;;2.83;2.25;;;5.00;99.90;;;;;;5054564;28;20202;-80
2022/01/14 06:08:59;;;;;;;1.77;1.67;;;5.00;99.90;;;;;;5052623;28;20313;-79
2022/01/14 06:11:28;;;;;;;2.35;2.15;;;5.00;99.90;;;;;;5055509;28;20278;-79
2022/01/14 06:13:56;;;;;;;2.53;2.33;;;5.00;99.90;;;;;;5039449;28;20249;-79
2022/01/14 06:16:24;;;;;;;4.32;2.53;;;5.00;99.90;;;;;;5045672;28;20202;-79
2022/01/14 06:18:54;;;;;;;2.03;1.83;;;5.00;99.90;;;;;;5053703;28;20201;-80
2022/01/14 06:21:22;;;;;;;2.53;2.33;;;5.00;99.90;;;;;;5054355;28;20288;-79
2022/01/14 06:23:51;;;;;;;1.90;1.80;;;5.00;99.90;;;;;;5043748;28;20283;-79
2022/01/14 06:26:23;;;;;;;2.95;2.20;;;5.10;99.90;;;;;;5050364;28;20190;-79
2022/01/14 06:28:52;;;;;;;2.50;2.10;;;5.10;99.90;;;;;;5044074;28;20218;-80
2022/01/14 06:31:20;;;;;;;2.70;2.25;;;5.00;99.90;;;;;;5043278;28;20226;-79
2022/01/14 06:33:49;;;;;;;2.30;1.65;;;5.10;99.90;;;;;;5035196;28;20217;-79
2022/01/14 06:36:19;;;;;;;1.75;1.65;;;5.20;99.90;;;;;;5038962;28;20262;-79
2022/01/14 06:38:47;;;;;;;1.90;1.77;;;5.10;99.90;;;;;;5035116;28;20277;-80
2022/01/14 06:41:15;;;;;;;2.83;1.95;;;5.10;99.90;;;;;;5040111;28;20229;-80
2022/01/14 06:43:44;;;;;;;1.95;1.85;;;5.00;99.90;;;;;;5055349;28;20218;-79
2022/01/14 06:46:12;;;;;;;3.08;2.35;;;4.90;99.90;;;;;;5050863;28;20205;-79
2022/01/14 06:48:41;;;;;;;2.35;2.13;;;4.90;99.90;;;;;;5035118;28;20262;-79
2022/01/14 06:51:14;;;;;;;2.88;2.33;;;4.90;99.90;;;;;;5041312;28;20297;-79
2022/01/14 06:53:47;;;;;;;3.13;2.40;;;4.80;99.90;;;;;;5048517;28;20194;-79
2022/01/14 06:56:16;;;;;;;3.70;2.25;;;4.80;99.90;;;;;;5036092;28;20213;-80
2022/01/14 06:58:45;;;;;;;2.92;2.00;;;4.80;99.90;;;;;;5045545;28;20290;-80
2022/01/14 07:01:14;;;;;;;2.00;1.83;;;4.80;99.90;;;;;;5054803;28;20214;-80
2022/01/14 07:03:43;;;;;;;2.85;2.65;;;4.90;99.90;;;;;;5036361;28;20280;-85
2022/01/14 07:06:12;;;;;;;4.53;2.70;;;4.90;99.90;;;;;;5029593;28;20206;-79
2022/01/14 07:08:40;;;;;;;3.45;2.67;;;4.80;99.90;;;;;;5035531;28;20241;-80
2022/01/14 07:11:16;;;;;;;2.58;2.20;;;4.90;99.90;;;;;;5018449;28;20191;-79
2022/01/14 07:14:01;;;;;;;2.13;1.85;;;4.90;99.90;;;;;;5016237;28;20230;-81
2022/01/14 07:16:33;;;;;;;2.20;2.00;;;5.00;99.90;;;;;;5039864;28;20225;-81
2022/01/14 07:19:03;;;;;;;2.45;2.13;;;5.00;99.90;;;;;;5033913;28;20253;-82
2022/01/14 07:21:33;;;;;;;2.10;2.00;;;5.00;99.90;;;;;;5042181;28;20266;-82
2022/01/14 07:24:01;;;;;;;7.35;2.45;;;5.00;99.90;;;;;;5049442;28;20219;-82
2022/01/14 07:26:31;;;;;;;2.95;2.38;;;5.10;99.90;;;;;;5033827;28;20262;-81
2022/01/14 07:29:00;;;;;;;2.88;2.60;;;5.10;99.90;;;;;;5049707;28;20305;-81
2022/01/14 07:31:28;;;;;;;3.72;2.75;;;5.10;99.90;;;;;;5054511;28;20288;-82
2022/01/14 07:33:57;;;;;;;3.22;2.33;;;5.30;99.90;;;;;;5054060;28;20218;-81
2022/01/14 07:36:25;;;;;;;2.50;2.30;;;5.30;99.90;;;;;;5038290;28;20237;-82
2022/01/14 07:38:53;;;;;;;5.28;2.83;;;5.40;99.90;;;;;;5038543;28;20230;-82
2022/01/14 07:41:22;;;;;;;4.18;2.50;;;5.40;99.90;;;;;;5045944;28;20230;-82
2022/01/14 07:43:52;;;;;;;3.47;2.65;;;5.50;99.90;;;;;;5037999;28;20202;-82
2022/01/14 07:46:20;;;;;;;2.17;2.05;;;5.60;99.90;;;;;;5045080;28;20201;-82
2022/01/14 07:48:51;;;;;;;3.70;3.33;;;5.60;99.90;;;;;;5028769;28;20191;-81
2022/01/14 07:51:25;;;;;;;2.95;2.63;;;5.60;99.90;;;;;;5033830;28;20214;-83
2022/01/14 07:54:07;;;;;;;2.63;2.42;;;5.60;99.90;;;;;;5032626;28;20244;-82
2022/01/14 07:56:37;;;;;;;1.90;1.80;;;5.70;99.90;;;;;;5033993;28;20345;-81
2022/01/14 07:59:09;;;;;;;2.15;1.95;;;5.70;99.90;;;;;;5033517;28;20216;-81
2022/01/14 08:01:38;;;;;;;2.30;2.10;;;5.80;99.90;;;;;;5016416;28;20199;-82
2022/01/14 08:04:07;;;;;;;3.00;2.60;;;5.80;99.90;;;;;;5014083;28;20227;-79
2022/01/14 08:06:46;;;;;;;2.65;2.15;;;5.80;99.90;;;;;;5033159;28;20241;-79
2022/01/14 08:09:16;;;;;;;2.70;2.22;;;5.80;99.90;;;;;;5032983;28;20302;-79
2022/01/14 08:11:45;;;;;;;2.58;2.15;;;5.90;99.90;;;;;;5032637;28;20206;-79
2022/01/14 08:14:22;;;;;;;4.85;2.67;;;5.90;99.90;;;;;;5032924;28;20222;-78
2022/01/14 08:17:20;;;;;;;3.28;2.42;;;6.00;99.90;;;;;;5031975;28;20201;-79
2022/01/14 08:20:39;;;;;;;3.80;2.53;;;6.00;99.90;;;;;;5033358;28;20194;-79
2022/01/14 08:23:08;;;;;;;2.55;2.20;;;6.10;99.90;;;;;;4994616;28;20291;-79
2022/01/14 08:25:36;;;;;;;2.22;2.05;;;6.10;99.90;;;;;;5023518;28;20253;-79
2022/01/14 08:28:05;;;;;;;2.83;2.20;;;6.10;99.90;;;;;;5033585;28;20292;-80
2022/01/14 08:30:38;;;;;;;2.83;2.17;;;6.20;99.90;;;;;;5031732;28;20309;-79
2022/01/14 08:33:08;;;;;;;3.03;2.30;;;6.40;99.90;;;;;;5033588;28;20261;-79
2022/01/14 08:35:37;;;;;;;2.15;1.95;;;6.40;99.90;;;;;;5036528;28;20230;-79
2022/01/14 08:38:06;;;;;;;1.70;1.60;;;6.40;99.90;;;;;;5042356;28;20256;-80
2022/01/14 08:40:35;;;;;;;1.95;1.77;;;6.40;99.90;;;;;;5036268;28;20197;-79
2022/01/14 08:43:06;;;;;;;2.10;1.83;;;6.40;99.90;;;;;;5048786;28;20297;-80
2022/01/14 08:45:37;;;;;;;2.70;1.63;;;6.50;99.90;;;;;;5043264;28;20233;-79
2022/01/14 08:48:06;;;;;;;1.45;1.35;;;6.50;99.90;;;;;;5035197;28;20206;-79
2022/01/14 08:50:37;;;;;;;2.20;2.00;;;6.60;99.90;;;;;;5032839;28;20218;-80
2022/01/14 08:53:06;;;;;;;1.92;1.80;;;6.60;99.90;;;;;;5040293;28;20209;-81
2022/01/14 08:55:36;;;;;;;2.17;2.05;;;6.60;99.90;;;;;;5052770;28;20228;-81
2022/01/14 08:58:05;;;;;;;2.22;1.67;;;6.60;99.90;;;;;;5053142;28;20224;-81
2022/01/14 09:00:34;;;;;;;4.88;2.20;;;6.70;99.90;;;;;;5052538;28;20225;-81
2022/01/14 09:03:04;;;;;;;2.20;2.00;;;6.80;99.90;;;;;;5053080;28;20205;-81
2022/01/14 09:05:33;;;;;;;1.90;1.80;;;6.80;99.90;;;;;;5043153;28;20253;-82
2022/01/14 09:08:03;;;;;;;5.25;2.05;;;6.80;99.90;;;;;;5032674;28;20209;-83
2022/01/14 09:10:35;;;;;;;1.73;1.63;;;6.90;99.90;;;;;;5032059;28;20219;-85
2022/01/14 09:13:05;;;;;;;4.25;2.35;;;7.00;99.90;;;;;;5031180;28;20293;-83
2022/01/14 09:15:33;;;;;;;1.92;1.63;;;7.00;99.90;;;;;;5031903;28;20305;-82
2022/01/14 09:18:13;;;;;;;2.10;1.92;;;7.00;99.90;;;;;;5034432;28;20286;-82
2022/01/14 09:20:44;;;;;;;1.75;1.58;;;7.10;99.90;;;;;;5033205;28;20199;-83
2022/01/14 09:23:17;;;;;;;5.57;1.90;;;7.20;99.90;;;;;;5043214;28;20198;-86
2022/01/14 09:25:45;;;;;;;2.97;2.22;;;7.20;99.90;;;;;;5031719;28;20222;-86
2022/01/14 09:28:14;;;;;;;4.93;2.00;;;7.30;99.90;;;;;;5032531;28;20206;-87
2022/01/14 09:30:42;;;;;;;3.38;2.10;;;7.20;99.90;;;;;;5032076;28;20269;-88
2022/01/14 09:33:16;;;;;;;2.20;1.75;;;7.30;99.90;;;;;;5030802;28;20199;-86
2022/01/14 09:35:45;;;;;;;6.03;2.25;;;7.30;99.90;;;;;;5031393;28;20230;-88
2022/01/14 09:38:13;;;;;;;1.60;1.50;;;7.40;99.90;;;;;;5046033;28;20297;-85
2022/01/14 09:40:44;;;;;;;1.92;1.83;;;7.40;99.90;;;;;;5048465;28;20222;-87
2022/01/14 09:43:13;;;;;;;3.13;2.58;;;7.50;99.90;;;;;;5036448;28;20277;-83
2022/01/14 09:46:01;;;;;;;2.28;2.00;;;7.50;99.90;;;;;;5024372;28;20231;-78
2022/01/14 09:48:31;;;;;;;1.60;1.50;;;7.70;99.90;;;;;;5051286;28;20202;-78
2022/01/14 09:51:00;;;;;;;1.80;1.70;;;7.80;99.90;;;;;;5039881;28;20217;-79
2022/01/14 09:53:30;;;;;;;7.07;1.92;;;7.90;99.90;;;;;;5034118;28;20222;-80
2022/01/14 09:55:58;;;;;;;2.58;1.77;;;7.90;99.90;;;;;;5035478;28;20270;-80
2022/01/14 09:58:29;;;;;;;2.00;1.80;;;7.90;99.90;;;;;;5035349;28;20214;-80
2022/01/14 10:01:07;;;;;;;4.07;2.13;;;8.00;99.90;;;;;;5034702;28;20214;-80
2022/01/14 10:03:49;;;;;;;3.00;2.47;;;8.10;99.90;;;;;;5033800;28;20296;-80
2022/01/14 10:06:41;;;;;;;2.28;2.08;;;8.10;99.90;;;;;;5035557;28;20206;-80
2022/01/14 10:09:12;;;;;;;2.95;2.50;;;8.20;99.90;;;;;;5034827;28;20214;-79
2022/01/14 10:11:43;;;;;;;3.05;2.17;;;8.30;99.90;;;;;;5034902;28;20233;-80
2022/01/14 10:14:15;;;;;;;1.98;1.88;;;8.20;99.90;;;;;;5034998;28;20230;-80
2022/01/14 10:16:44;;;;;;;3.95;2.70;;;8.30;99.90;;;;;;5035029;28;20271;-79
2022/01/14 10:19:21;;;;;;;2.38;2.15;;;8.40;99.90;;;;;;5035026;28;20297;-79
2022/01/14 10:21:49;;;;;;;2.55;2.13;;;8.50;99.90;;;;;;5035314;28;20289;-80
2022/01/14 10:24:19;;;;;;;3.58;2.35;;;8.60;99.90;;;;;;5035253;28;20310;-80
2022/01/14 10:26:50;;;;;;;2.28;2.10;;;8.80;99.90;;;;;;5034817;28;20241;-80
2022/01/14 10:29:32;;;;;;;3.17;2.83;;;9.00;99.90;;;;;;5034622;28;20249;-79
2022/01/14 10:32:02;;;;;;;1.80;1.70;;;9.30;99.90;;;;;;5034930;28;20352;-80
2022/01/14 10:34:32;;;;;;;3.03;1.90;;;9.60;99.90;;;;;;5034944;28;20231;-79
2022/01/14 10:37:12;;;;;;;1.92;1.75;;;9.90;99.90;;;;;;5034537;28;20217;-79
2022/01/14 10:39:48;;;;;;;2.30;1.92;;;10.20;99.10;;;;;;5034279;28;20268;-80
2022/01/14 10:42:26;;;;;;;1.40;1.30;;;10.60;98.50;;;;;;5034344;28;20214;-79
2022/01/14 10:45:18;;;;;;;2.83;2.10;;;10.70;97.90;;;;;;5034687;28;20241;-80
2022/01/14 10:47:55;;;;;;;1.60;1.50;;;10.90;97.30;;;;;;5034226;28;20202;-79
2022/01/14 10:50:34;;;;;;;1.60;1.50;;;11.20;96.70;;;;;;5034047;28;20214;-80
2022/01/14 10:53:04;;;;;;;1.58;1.48;;;11.00;96.50;;;;;;5034113;28;20229;-80
2022/01/14 10:55:35;;;;;;;2.35;1.70;;;11.00;96.30;;;;;;5033309;28;20305;-80
2022/01/14 10:58:05;;;;;;;1.42;1.33;;;10.80;96.60;;;;;;5034514;28;20281;-80
2022/01/14 11:00:59;;;;;;;1.52;1.42;;;10.80;96.80;;;;;;5033901;28;20206;-80
2022/01/14 11:03:35;;;;;;;1.60;1.50;;;11.10;96.60;;;;;;5033147;28;20213;-80
2022/01/14 11:06:19;;;;;;;1.52;1.42;;;11.10;96.40;;;;;;5033808;28;20225;-80
2022/01/14 11:08:50;;;;;;;1.67;1.58;;;11.20;96.20;;;;;;5033539;28;20230;-80
2022/01/14 11:11:18;;;;;;;1.30;1.20;;;11.30;96.30;;;;;;5034264;28;20260;-80
2022/01/14 11:13:46;;;;;;;2.50;2.00;;;11.40;96.20;;;;;;5034123;28;20217;-80
2022/01/14 11:16:15;;;;;;;1.80;1.70;;;11.50;96.00;;;;;;5033965;28;20213;-79
2022/01/14 11:18:46;;;;;;;1.77;1.67;;;11.50;95.50;;;;;;5033306;28;20218;-80
2022/01/14 11:24:04;;;;;;;1.27;1.27;;;12.00;95.30;;;;;;5034070;28;20322;-80
2022/01/14 11:26:35;;;;;;;1.50;1.40;;;12.10;94.30;;;;;;5034339;28;20289;-80
2022/01/14 11:29:07;;;;;;;1.80;1.70;;;12.00;93.90;;;;;;5033184;28;20210;-80
2022/01/14 11:31:37;;;;;;;1.70;1.52;;;12.00;93.60;;;;;;5033505;28;20222;-80
2022/01/14 11:34:08;;;;;;;1.67;1.58;;;12.00;93.30;;;;;;5033666;28;20286;-80
2022/01/14 11:36:50;;;;;;;1.65;1.55;;;12.00;93.30;;;;;;5033345;28;20234;-81
2022/01/14 11:39:21;;;;;;;1.80;1.67;;;12.10;93.20;;;;;;5033252;28;20213;-80
2022/01/14 11:41:55;;;;;;;1.55;1.45;;;12.10;93.00;;;;;;5033554;28;20370;-80
2022/01/14 11:44:53;;;;;;;1.45;1.35;;;12.30;93.00;;;;;;5033524;28;20246;-80
2022/01/14 11:47:48;;;;;;;4.75;1.23;;;12.60;93.10;;;;;;5033589;28;20222;-80
2022/01/14 11:50:46;;;;;;;1.45;1.30;;;12.30;92.50;;;;;;5032771;28;20272;-80
2022/01/14 11:53:46;;;;;;;1.10;1.10;;;12.20;92.30;;;;;;5033127;28;20222;-80
2022/01/14 11:56:47;;;;;;;1.80;1.70;;;12.00;92.40;;;;;;5025426;28;20222;-79
2022/01/14 11:59:38;;;;;;;1.60;1.50;;;11.90;92.20;;;;;;4999996;28;20230;-80
2022/01/14 12:02:32;;;;;;;1.70;1.60;;;11.90;92.60;;;;;;5032994;28;20260;-79
2022/01/14 12:05:25;;;;;;;1.58;1.48;;;11.70;92.20;;;;;;5032797;28;20253;-80
2022/01/14 12:08:14;;;;;;;1.60;1.50;;;11.70;92.40;;;;;;5032923;28;20210;-79
2022/01/14 12:10:48;;;;;;;1.73;1.63;;;11.80;91.80;;;;;;5032508;28;20204;-79
2022/01/14 12:13:22;;;;;;;1.48;1.38;;;11.70;91.70;;;;;;5032882;28;20290;-80
2022/01/14 12:15:57;;;;;;;1.40;1.30;;;11.60;91.60;;;;;;5033173;28;20314;-80
2022/01/14 12:19:14;;;;;;;1.50;1.40;;;11.90;91.30;;;;;;5032511;28;20201;-80
2022/01/14 12:21:59;;;;;;;1.65;1.55;;;11.60;91.30;;;;;;5033137;28;20220;-80
2022/01/14 12:24:35;;;;;;;1.60;1.50;;;11.60;91.60;;;;;;5032826;28;20230;-80
2022/01/14 12:27:24;;;;;;;1.38;1.27;;;11.80;91.40;;;;;;5032763;28;20224;-80
2022/01/14 12:30:35;;;;;;;2.20;1.75;;;11.50;91.60;;;;;;5032127;28;20267;-80
2022/01/14 12:33:07;;;;;;;1.73;1.63;;;11.30;92.50;;;;;;5021614;28;20242;-80
2022/01/14 12:35:36;;;;;;;1.30;1.20;;;11.30;92.60;;;;;;5032270;28;20229;-80
2022/01/14 12:38:04;;;;;;;2.05;1.83;;;11.10;93.20;;;;;;5032801;28;20202;-80
2022/01/14 12:40:40;;;;;;;3.05;1.70;;;11.20;93.40;;;;;;5032189;28;20206;-80
2022/01/14 12:43:12;;;;;;;1.75;1.65;;;11.20;93.50;;;;;;5032628;28;20205;-80
2022/01/14 12:46:00;;;;;;;4.13;2.60;;;11.10;93.60;;;;;;5032791;28;20235;-80
2022/01/14 12:48:46;;;;;;;1.70;1.60;;;11.20;93.60;;;;;;5032210;28;20239;-79
2022/01/14 12:51:19;;;;;;;1.67;1.58;;;11.10;93.20;;;;;;5032881;28;20245;-80
2022/01/14 12:53:56;;;;;;;1.40;1.30;;;11.20;92.50;;;;;;5032233;28;20214;-80
2022/01/14 12:56:27;;;;;;;1.98;1.83;;;11.00;91.80;;;;;;5032356;28;20220;-80
2022/01/14 12:59:02;;;;;;;1.50;1.38;;;11.10;91.40;;;;;;5032245;28;20211;-80
2022/01/14 13:01:35;;;;;;;2.83;1.70;;;11.20;90.60;;;;;;5032312;28;20209;-80
2022/01/14 13:04:08;;;;;;;4.85;1.60;;;11.10;89.80;;;;;;5031207;28;20260;-79
2022/01/14 13:06:48;;;;;;;2.35;1.70;;;11.20;87.40;;;;;;5032174;28;20198;-80
2022/01/14 13:09:20;;;;;;;1.48;1.40;;;11.10;87.60;;;;;;5032057;28;20233;-80
2022/01/14 13:11:57;;;;;;;1.75;1.45;;;11.20;88.10;;;;;;5032521;28;20289;-80
2022/01/14 13:14:28;;;;;;;1.67;1.58;;;11.30;88.90;;;;;;5031550;28;20241;-79
2022/01/14 13:17:02;;;;;;;2.70;2.35;;;11.10;90.10;;;;;;5032526;28;20301;-80
2022/01/14 13:19:34;;;;;;;1.50;1.40;;;11.30;90.30;;;;;;5035846;28;20229;-80
2022/01/14 13:22:08;;;;;;;1.45;1.35;;;11.20;90.50;;;;;;5036121;28;20225;-80
2022/01/14 13:24:39;;;;;;;1.65;1.55;;;11.00;90.80;;;;;;5036449;28;20236;-79
2022/01/14 13:27:11;;;;;;;5.43;1.92;;;10.90;91.10;;;;;;5035816;28;20218;-80
2022/01/14 13:29:43;;;;;;;3.28;1.73;;;11.00;91.30;;;;;;5035505;28;20289;-80
2022/01/14 13:32:15;;;;;;;2.10;1.90;;;11.00;91.30;;;;;;5035995;28;20230;-80
2022/01/14 13:34:48;;;;;;;1.50;1.40;;;11.10;91.40;;;;;;5035907;28;20335;-80
2022/01/14 13:37:18;;;;;;;1.55;1.45;;;11.20;91.30;;;;;;5035745;28;20210;-79
2022/01/14 13:40:01;;;;;;;2.15;1.75;;;11.00;92.10;;;;;;5035428;28;20245;-80
2022/01/14 13:42:29;;;;;;;1.92;1.70;;;10.80;92.70;;;;;;5035940;28;20214;-80